createdAt,value
2023-03-21T00:00:26.804Z,26.55
2023-03-21T00:03:36.798Z,25.75
2023-03-21T00:06:42.940Z,24.61
2023-03-21T00:09:53.663Z,25.85
2023-03-21T00:13:13.460Z,27.66
2023-03-21T00:16:26.274Z,29.36
2023-03-21T00:19:38.752Z,29.62
2023-03-21T00:22:46.303Z,30.45
2023-03-21T00:25:55.618Z,35.43
2023-03-21T00:29:19.852Z,41.55
2023-03-21T00:32:26.141Z,46.46
2023-03-21T00:35:57.835Z,52.04
2023-03-21T00:39:08.149Z,45.12
2023-03-21T00:42:20.017Z,37.56
2023-03-21T00:45:26.006Z,43.23
2023-03-21T00:48:33.836Z,45.88
2023-03-21T00:51:39.853Z,41.98
2023-03-21T00:54:50.670Z,43.60
2023-03-21T00:58:02.164Z,45.57
2023-03-21T01:01:10.266Z,45.31
2023-03-21T01:04:21.378Z,53.02
2023-03-21T01:07:28.238Z,55.07
2023-03-21T01:10:34.112Z,53.52
2023-03-21T01:13:53.757Z,54.72
2023-03-21T01:17:05.109Z,50.05
2023-03-21T01:20:15.483Z,49.42
2023-03-21T01:23:21.524Z,41.45
2023-03-21T01:26:28.451Z,38.73
2023-03-21T01:29:36.871Z,34.25
2023-03-21T01:32:48.948Z,33.65
2023-03-21T01:36:03.260Z,36.07
2023-03-21T01:39:18.844Z,33.14
2023-03-21T01:42:27.871Z,33.09
2023-03-21T01:46:37.258Z,33.38
2023-03-21T01:50:13.133Z,36.33
2023-03-21T01:53:38.493Z,42.15
2023-03-21T01:56:49.990Z,38.20
2023-03-21T01:59:58.128Z,34.86
2023-03-21T02:03:38.753Z,34.32
2023-03-21T02:07:17.002Z,32.02
2023-03-21T02:10:35.817Z,31.28
2023-03-21T02:13:43.703Z,29.93
2023-03-21T02:17:17.904Z,31.10
2023-03-21T02:20:59.771Z,34.51
2023-03-21T02:25:22.204Z,38.19
2023-03-21T02:28:49.454Z,36.72
2023-03-21T02:32:25.310Z,32.88
2023-03-21T02:36:15.709Z,31.62
2023-03-21T02:39:40.575Z,28.94
2023-03-21T02:43:11.598Z,29.18
2023-03-21T02:46:42.965Z,28.45
2023-03-21T02:50:20.207Z,28.98
2023-03-21T02:53:35.016Z,29.00
2023-03-21T02:56:47.728Z,29.20
2023-03-21T03:00:02.363Z,29.44
2023-03-21T03:03:35.282Z,35.02
2023-03-21T03:07:18.073Z,34.89
2023-03-21T03:10:47.001Z,36.31
2023-03-21T03:14:53.067Z,35.55
2023-03-21T03:18:01.999Z,35.36
2023-03-21T03:21:26.274Z,34.72
2023-03-21T03:24:45.313Z,34.19
2023-03-21T03:27:59.137Z,32.73
2023-03-21T03:31:12.865Z,33.22
2023-03-21T03:34:39.727Z,34.81
2023-03-21T03:37:54.545Z,36.74
2023-03-21T03:41:14.911Z,38.78
2023-03-21T03:44:30.207Z,36.44
2023-03-21T03:47:57.253Z,35.37
2023-03-21T03:51:16.460Z,35.40
2023-03-21T03:54:51.217Z,36.41
2023-03-21T03:57:59.001Z,37.26
2023-03-21T04:01:05.729Z,38.23
2023-03-21T04:04:17.184Z,38.86
2023-03-21T04:07:25.412Z,37.74
2023-03-21T04:10:33.668Z,39.26
2023-03-21T04:13:43.615Z,38.51
2023-03-21T04:16:52.555Z,37.23
2023-03-21T04:20:11.624Z,35.97
2023-03-21T04:23:19.809Z,35.49
2023-03-21T04:26:33.797Z,37.62
2023-03-21T04:29:59.729Z,34.91
2023-03-21T04:33:37.236Z,32.48
2023-03-21T04:37:13.799Z,32.31
2023-03-21T04:40:21.893Z,33.11
2023-03-21T04:43:35.243Z,34.75
2023-03-21T04:46:45.081Z,35.20
2023-03-21T04:49:54.748Z,39.23
2023-03-21T04:53:04.128Z,38.66
2023-03-21T04:56:11.231Z,39.03
2023-03-21T04:59:26.252Z,39.04
2023-03-21T05:02:32.226Z,37.79
2023-03-21T05:05:40.815Z,32.14
2023-03-21T05:08:49.240Z,30.16
2023-03-21T05:11:56.899Z,28.73
2023-03-21T05:15:02.898Z,28.14
2023-03-21T05:18:13.873Z,27.19
2023-03-21T05:21:41.875Z,27.67
2023-03-21T05:24:58.813Z,26.65
2023-03-21T05:28:32.060Z,25.49
2023-03-21T05:31:43.397Z,30.05
2023-03-21T05:34:53.214Z,35.03
2023-03-21T05:38:02.521Z,38.40
2023-03-21T05:41:18.171Z,38.68
2023-03-21T05:44:26.372Z,34.98
2023-03-21T05:47:32.892Z,32.55
2023-03-21T05:50:42.589Z,30.12
2023-03-21T05:53:54.638Z,30.49
2023-03-21T05:57:04.273Z,28.24
2023-03-21T06:00:30.971Z,29.42
2023-03-21T06:03:57.901Z,33.33
2023-03-21T06:07:07.007Z,36.32
2023-03-21T06:10:15.666Z,39.16
2023-03-21T06:13:28.192Z,41.46
2023-03-21T06:16:35.074Z,41.44
2023-03-21T06:19:41.459Z,36.58
2023-03-21T06:22:54.478Z,32.22
2023-03-21T06:26:12.394Z,33.30
2023-03-21T06:29:22.285Z,30.18
2023-03-21T06:32:29.983Z,28.09
2023-03-21T06:35:45.227Z,26.18
2023-03-21T06:38:51.290Z,27.93
2023-03-21T06:41:58.602Z,28.96
2023-03-21T06:45:15.103Z,28.11
2023-03-21T06:48:26.125Z,19.57
2023-03-21T06:51:32.131Z,18.81
2023-03-21T06:54:51.948Z,18.89
2023-03-21T06:58:00.832Z,19.27
2023-03-21T07:01:11.365Z,19.31
2023-03-21T07:04:29.909Z,21.21
2023-03-21T07:07:38.002Z,22.80
2023-03-21T07:10:45.477Z,22.52
2023-03-21T07:13:54.249Z,22.02
2023-03-21T07:17:09.265Z,23.27
2023-03-21T07:20:38.236Z,23.92
2023-03-21T07:23:44.322Z,23.77
2023-03-21T07:26:51.236Z,26.57
2023-03-21T07:29:57.015Z,34.78
2023-03-21T07:33:07.335Z,29.06
2023-03-21T07:36:17.358Z,30.05
2023-03-21T07:39:24.964Z,37.15
2023-03-21T07:42:35.326Z,34.04
2023-03-21T07:45:42.875Z,36.52
2023-03-21T07:48:51.424Z,40.55
2023-03-21T07:51:58.087Z,51.34
2023-03-21T07:55:04.039Z,41.81
2023-03-21T07:58:10.898Z,40.56
2023-03-21T08:01:16.932Z,45.86
2023-03-21T08:04:29.316Z,58.20
2023-03-21T08:07:35.457Z,47.09
2023-03-21T08:10:42.578Z,39.37
2023-03-21T08:13:48.591Z,37.27
2023-03-21T08:16:55.798Z,39.16
2023-03-21T08:20:04.960Z,38.21
2023-03-21T08:23:11.712Z,34.82
2023-03-21T08:26:18.672Z,34.82
2023-03-21T08:29:25.894Z,35.64
2023-03-21T08:32:33.148Z,35.28
2023-03-21T08:35:43.367Z,36.00
2023-03-21T08:38:49.368Z,36.66
2023-03-21T08:41:56.363Z,35.12
2023-03-21T08:45:02.225Z,35.99
2023-03-21T08:48:09.283Z,35.90
2023-03-21T08:51:20.094Z,34.53
2023-03-21T08:54:27.398Z,33.76
2023-03-21T08:57:33.671Z,38.66
2023-03-21T09:00:40.486Z,39.46
2023-03-21T09:03:56.084Z,47.38
2023-03-21T09:07:06.196Z,49.87
2023-03-21T09:10:21.812Z,48.22
2023-03-21T09:13:28.945Z,42.96
2023-03-21T09:16:35.290Z,48.82
2023-03-21T09:19:42.766Z,42.08
2023-03-21T09:22:54.074Z,46.02
2023-03-21T09:26:00.946Z,42.16
2023-03-21T09:29:07.774Z,40.27
2023-03-21T09:32:15.029Z,43.33
2023-03-21T09:35:29.323Z,36.25
2023-03-21T09:38:48.216Z,34.84
2023-03-21T09:42:22.204Z,37.06
2023-03-21T09:45:43.595Z,52.32
2023-03-21T09:49:00.366Z,50.73
2023-03-21T09:52:22.622Z,54.72
2023-03-21T09:55:38.828Z,55.79
2023-03-21T09:58:53.275Z,46.47
2023-03-21T10:02:04.262Z,41.77
2023-03-21T10:05:23.006Z,51.36
2023-03-21T10:08:37.654Z,44.05
2023-03-21T10:11:53.486Z,44.82
2023-03-21T10:15:05.605Z,54.10
2023-03-21T10:18:24.198Z,57.66
2023-03-21T10:21:58.533Z,55.77
2023-03-21T10:24:59.131Z,52.79
2023-03-21T10:28:18.352Z,41.41
2023-03-21T10:31:30.093Z,43.27
2023-03-21T10:34:46.194Z,47.46
2023-03-21T10:37:53.048Z,43.66
2023-03-21T10:40:59.033Z,45.47
2023-03-21T10:44:14.957Z,42.72
2023-03-21T10:47:25.462Z,41.45
2023-03-21T10:50:33.967Z,46.96
2023-03-21T10:53:48.410Z,49.42
2023-03-21T10:57:14.703Z,61.16
2023-03-21T11:00:32.600Z,45.56
2023-03-21T11:03:44.920Z,55.35
2023-03-21T11:06:58.310Z,56.06
2023-03-21T11:10:20.044Z,46.37
2023-03-21T11:13:41.485Z,51.78
2023-03-21T11:16:50.965Z,57.57
2023-03-21T11:20:05.055Z,56.80
2023-03-21T11:23:18.700Z,59.35
2023-03-21T11:26:37.707Z,50.55
2023-03-21T11:29:52.392Z,50.37
2023-03-21T11:33:06.431Z,42.20
2023-03-21T11:36:39.183Z,40.74
2023-03-21T11:39:48.891Z,46.21
2023-03-21T11:42:58.599Z,41.73
2023-03-21T11:46:11.797Z,37.08
2023-03-21T11:49:21.138Z,36.19
2023-03-21T11:52:41.590Z,38.79
2023-03-21T11:56:10.003Z,40.08
2023-03-21T11:59:42.152Z,41.07
2023-03-21T12:03:46.836Z,37.22
2023-03-21T12:07:05.796Z,41.98
2023-03-21T12:10:35.203Z,44.35
2023-03-21T12:14:07.426Z,39.57
2023-03-21T12:17:35.304Z,36.41
2023-03-21T12:20:52.548Z,46.66
2023-03-21T12:24:17.199Z,52.73
2023-03-21T12:27:42.345Z,39.05
2023-03-21T12:31:11.160Z,36.54
2023-03-21T12:34:49.146Z,38.93
2023-03-21T12:38:14.023Z,40.99
2023-03-21T12:41:31.450Z,36.37
2023-03-21T12:44:45.527Z,40.35
2023-03-21T12:47:59.094Z,40.22
2023-03-21T12:51:15.879Z,49.77
2023-03-21T12:54:35.179Z,44.51
2023-03-21T12:57:57.493Z,43.46
2023-03-21T13:01:15.933Z,41.66
2023-03-21T13:04:50.344Z,38.03
2023-03-21T13:08:08.082Z,40.84
2023-03-21T13:11:24.365Z,37.10
2023-03-21T13:14:46.425Z,38.29
2023-03-21T13:18:05.381Z,41.72
2023-03-21T13:21:22.527Z,41.12
2023-03-21T13:24:40.910Z,34.16
2023-03-21T13:28:07.416Z,34.11
2023-03-21T13:31:41.917Z,32.56
2023-03-21T13:35:04.989Z,32.95
2023-03-21T13:38:22.976Z,32.44
2023-03-21T13:41:36.150Z,32.75
2023-03-21T13:44:51.776Z,31.68
2023-03-21T13:48:04.013Z,39.63
2023-03-21T13:51:12.339Z,36.73
2023-03-21T13:54:29.768Z,39.24
2023-03-21T13:57:49.911Z,38.58
2023-03-21T14:01:26.322Z,35.58
2023-03-21T14:04:48.157Z,31.79
2023-03-21T14:08:15.464Z,31.93
2023-03-21T14:11:26.840Z,34.51
2023-03-21T14:14:42.422Z,33.41
2023-03-21T14:17:58.844Z,35.64
2023-03-21T14:21:09.419Z,30.09
2023-03-21T14:24:21.580Z,29.64
2023-03-21T14:27:34.689Z,29.80
2023-03-21T14:30:45.774Z,32.08
2023-03-21T14:33:56.945Z,28.77
2023-03-21T14:37:20.590Z,28.63
2023-03-21T14:40:32.928Z,29.54
2023-03-21T14:43:39.674Z,28.30
2023-03-21T14:46:46.761Z,26.50
2023-03-21T14:49:55.525Z,27.81
2023-03-21T14:53:04.520Z,31.53
2023-03-21T14:56:24.265Z,32.49
2023-03-21T14:59:39.006Z,27.52
2023-03-21T15:03:03.354Z,27.90
2023-03-21T15:06:17.896Z,32.44
2023-03-21T15:09:32.624Z,30.47
2023-03-21T15:12:55.102Z,29.26
2023-03-21T15:16:03.705Z,31.70
2023-03-21T15:19:18.961Z,31.77
2023-03-21T15:22:40.512Z,33.81
2023-03-21T15:25:49.632Z,34.02
2023-03-21T15:29:02.601Z,32.52
2023-03-21T15:32:16.871Z,28.21
2023-03-21T15:35:31.473Z,32.35
2023-03-21T15:38:46.180Z,30.42
2023-03-21T15:42:25.619Z,32.90
2023-03-21T15:45:32.453Z,34.43
2023-03-21T15:48:39.139Z,35.59
2023-03-21T15:51:50.457Z,32.14
2023-03-21T15:54:59.583Z,33.21
2023-03-21T15:58:19.247Z,32.88
2023-03-21T16:01:27.440Z,39.20
2023-03-21T16:04:34.326Z,38.17
2023-03-21T16:07:49.777Z,38.96
2023-03-21T16:10:55.788Z,63.25
2023-03-21T16:14:07.837Z,102.38
2023-03-21T16:17:42.968Z,37.32
2023-03-21T16:20:51.023Z,66.52
2023-03-21T16:24:02.877Z,36.08
2023-03-21T16:27:09.709Z,44.78
2023-03-21T16:30:22.029Z,52.90
2023-03-21T16:33:28.972Z,38.36
2023-03-21T16:36:37.998Z,46.69
2023-03-21T16:39:50.441Z,64.88
2023-03-21T16:42:56.681Z,49.30
2023-03-21T16:46:08.289Z,33.55
2023-03-21T16:49:26.943Z,38.07
2023-03-21T16:52:33.599Z,57.72
2023-03-21T16:55:41.321Z,87.04
2023-03-21T16:58:48.701Z,80.90
2023-03-21T17:01:57.267Z,98.06
2023-03-21T17:05:10.520Z,67.74
2023-03-21T17:08:22.051Z,63.31
2023-03-21T17:11:36.366Z,69.61
2023-03-21T17:14:42.633Z,80.87
2023-03-21T17:17:55.867Z,75.89
2023-03-21T17:21:01.824Z,86.27
2023-03-21T17:24:17.166Z,73.60
2023-03-21T17:27:23.023Z,73.36
2023-03-21T17:30:33.857Z,71.23
2023-03-21T17:33:42.510Z,55.67
2023-03-21T17:36:51.818Z,54.89
2023-03-21T17:39:57.960Z,60.89
2023-03-21T17:43:04.787Z,70.27
2023-03-21T17:46:15.936Z,73.40
2023-03-21T17:49:25.316Z,81.02
2023-03-21T17:52:31.168Z,91.25
2023-03-21T17:55:40.084Z,100.37
2023-03-21T17:58:47.392Z,104.80
2023-03-21T18:01:54.108Z,95.27
2023-03-21T18:05:02.701Z,77.82
2023-03-21T18:08:12.706Z,68.69
2023-03-21T18:11:24.276Z,65.39
2023-03-21T18:14:31.039Z,68.90
2023-03-21T18:17:37.132Z,76.93
2023-03-21T18:20:52.545Z,79.08
2023-03-21T18:23:59.936Z,88.35
2023-03-21T18:27:12.473Z,89.28
2023-03-21T18:30:41.433Z,99.48
2023-03-21T18:33:53.113Z,96.59
2023-03-21T18:37:07.954Z,94.50
2023-03-21T18:40:26.544Z,103.69
2023-03-21T18:47:10.944Z,111.43
2023-03-21T18:50:17.152Z,112.48
2023-03-21T18:53:26.521Z,126.85
2023-03-21T19:00:06.542Z,148.74
2023-03-21T19:03:36.698Z,129.48
2023-03-21T19:06:44.168Z,119.50
2023-03-21T19:10:15.361Z,116.21
2023-03-21T19:13:19.439Z,111.65
2023-03-21T19:16:30.027Z,111.88
2023-03-21T19:19:39.634Z,114.34
2023-03-21T19:22:46.433Z,104.29
2023-03-21T19:25:55.730Z,97.80
2023-03-21T19:29:01.693Z,132.19
2023-03-21T19:32:09.423Z,103.91
2023-03-21T19:35:22.288Z,85.25
2023-03-21T19:38:29.301Z,85.82
2023-03-21T19:41:38.395Z,89.98
2023-03-21T19:44:52.172Z,89.88
2023-03-21T19:47:58.038Z,85.02
2023-03-21T19:51:29.152Z,86.66
2023-03-21T19:54:42.997Z,91.79
2023-03-21T19:57:57.316Z,94.84
2023-03-21T20:01:03.306Z,109.17
2023-03-21T20:04:10.143Z,112.77
2023-03-21T20:07:16.114Z,116.93
2023-03-21T20:10:27.486Z,118.18
2023-03-21T20:13:36.566Z,101.79
2023-03-21T20:16:43.917Z,98.48
2023-03-21T20:19:49.866Z,99.52
2023-03-21T20:23:06.835Z,101.04
2023-03-21T20:26:25.025Z,101.88
2023-03-21T20:33:09.447Z,120.15
2023-03-21T20:39:42.745Z,102.14
2023-03-21T20:42:51.376Z,105.83
2023-03-21T20:46:08.757Z,111.74
2023-03-21T20:49:23.222Z,110.69
2023-03-21T20:53:04.582Z,116.43
2023-03-21T20:56:02.892Z,115.30
2023-03-21T20:59:18.785Z,111.77
2023-03-21T21:02:34.441Z,122.96
2023-03-21T21:05:40.354Z,138.27
2023-03-21T21:08:51.611Z,155.16
2023-03-21T21:12:14.017Z,154.49
2023-03-21T21:15:21.370Z,155.45
2023-03-21T21:18:30.580Z,163.59
2023-03-21T21:21:37.727Z,156.85
2023-03-21T21:24:45.284Z,137.87
2023-03-21T21:27:52.006Z,131.16
2023-03-21T21:31:12.022Z,120.84
2023-03-21T21:34:22.016Z,121.14
2023-03-21T21:37:28.336Z,124.39
2023-03-21T21:40:35.215Z,126.42
2023-03-21T21:43:41.085Z,117.76
2023-03-21T21:46:48.040Z,115.69
2023-03-21T21:49:56.652Z,119.79
2023-03-21T21:53:04.049Z,124.11
2023-03-21T21:56:12.250Z,134.91
2023-03-21T21:59:22.390Z,159.27
2023-03-21T22:02:28.281Z,167.98
2023-03-21T22:05:37.793Z,164.99
2023-03-21T22:08:47.464Z,159.48
2023-03-21T22:11:55.600Z,143.51
2023-03-21T22:15:01.642Z,146.33
2023-03-21T22:18:08.717Z,155.57
2023-03-21T22:21:17.478Z,144.32
2023-03-21T22:24:24.188Z,112.12
2023-03-21T22:27:33.175Z,125.28
2023-03-21T22:30:40.205Z,128.98
2023-03-21T22:33:46.393Z,133.61
2023-03-21T22:36:57.594Z,129.17
2023-03-21T22:40:12.649Z,120.98
2023-03-21T22:43:20.682Z,96.42
2023-03-21T22:46:26.725Z,86.99
2023-03-21T22:49:34.806Z,97.27
2023-03-21T22:52:44.809Z,107.45
2023-03-21T22:55:51.531Z,113.52
2023-03-21T22:59:00.722Z,121.72
2023-03-21T23:02:07.949Z,120.48
2023-03-21T23:05:14.527Z,115.73
2023-03-21T23:08:23.879Z,107.78
2023-03-21T23:11:30.639Z,103.04
2023-03-21T23:14:37.386Z,99.35
2023-03-21T23:17:44.333Z,104.67
2023-03-21T23:20:53.791Z,113.90
2023-03-21T23:24:05.678Z,114.13
2023-03-21T23:27:14.432Z,108.13
2023-03-21T23:30:20.892Z,107.16
2023-03-21T23:33:30.799Z,105.80
2023-03-21T23:36:44.667Z,100.97
2023-03-21T23:39:55.666Z,97.39
2023-03-21T23:43:04.907Z,97.73
2023-03-21T23:46:13.127Z,95.53
2023-03-21T23:49:19.158Z,95.09
2023-03-21T23:52:25.885Z,95.29
2023-03-21T23:55:34.833Z,94.39
2023-03-21T23:58:41.769Z,98.48
